Armstrong, Florida
Current Conditions -  °F | °C
As of 10:58 PM on Tuesday 27 Jan 2015 (Local Time) from KSGJ Reporting Station
Clear Clear  
Wind Chill: 42°   Ceiling: Unl
Heat Index: 46°   Visibility: 10mi
Dew Point: 38°   Wind: 7mph
Humidity: 73%   Direction: 330°NNW
Pressure: 30.06"   Gusts: NA
Location:  29.7919°N, 81.4499°W
Report Text: KSGJ 280358Z AUTO 33006KT 10SM CLR 08/03 A3006 RMK AO2 SLP179 T00780033
Loading
Personal Weather Stations






























Interactive Weather Map New forecast layout! Learn more

10-Day Weather Forecast

Advertisements
Track Severe Weather on mobile